createdAt,value
2016-09-30T00:00:24.045Z,0
2016-09-30T00:01:25.038Z,0
2016-09-30T00:02:24.099Z,0
2016-09-30T00:03:23.894Z,0
2016-09-30T00:04:24.186Z,0
2016-09-30T00:05:24.887Z,0
2016-09-30T00:06:23.668Z,0
2016-09-30T00:07:24.048Z,0
2016-09-30T00:08:23.462Z,0
2016-09-30T00:09:24.737Z,0
2016-09-30T00:10:23.565Z,0
2016-09-30T00:11:23.738Z,0
2016-09-30T00:12:24.778Z,0
2016-09-30T00:13:23.689Z,0
2016-09-30T00:14:24.013Z,0
2016-09-30T00:15:23.248Z,0
2016-09-30T00:16:23.674Z,0
2016-09-30T00:17:24.026Z,0
2016-09-30T00:18:23.683Z,0
2016-09-30T00:19:23.744Z,0
2016-09-30T00:20:23.807Z,0
2016-09-30T00:21:24.085Z,0
2016-09-30T00:22:24.185Z,0
2016-09-30T00:23:24.182Z,0
2016-09-30T00:24:23.945Z,0
2016-09-30T00:25:23.264Z,0
2016-09-30T00:26:22.095Z,0
2016-09-30T00:27:23.723Z,0
2016-09-30T00:28:23.208Z,0
2016-09-30T00:29:23.847Z,0
2016-09-30T00:30:23.275Z,0
2016-09-30T00:31:23.059Z,0
2016-09-30T00:32:23.826Z,0
2016-09-30T00:33:21.755Z,0
2016-09-30T00:34:23.705Z,0
2016-09-30T00:35:23.694Z,0
2016-09-30T00:36:22.386Z,0
2016-09-30T00:37:22.286Z,0
2016-09-30T00:38:22.867Z,0
2016-09-30T00:39:23.942Z,0
2016-09-30T00:40:23.126Z,0
2016-09-30T00:41:23.724Z,0
2016-09-30T00:42:24.303Z,0
2016-09-30T00:43:21.891Z,0
2016-09-30T00:44:22.905Z,0
2016-09-30T00:45:23.844Z,0
2016-09-30T00:46:23.612Z,0
2016-09-30T00:47:22.898Z,0
2016-09-30T00:48:23.663Z,0
2016-09-30T00:49:24.071Z,0
2016-09-30T00:50:23.437Z,0
2016-09-30T00:51:23.517Z,0
2016-09-30T00:52:23.008Z,0
2016-09-30T00:53:23.457Z,0
2016-09-30T00:54:24.137Z,0
2016-09-30T00:55:22.693Z,0
2016-09-30T00:56:23.144Z,0
2016-09-30T00:57:23.275Z,0
2016-09-30T00:58:23.328Z,0
2016-09-30T00:59:22.716Z,0
2016-09-30T01:00:23.393Z,0
2016-09-30T01:01:23.592Z,0
2016-09-30T01:02:22.955Z,0
2016-09-30T01:03:22.784Z,0
2016-09-30T01:04:23.876Z,0
2016-09-30T01:05:23.540Z,0
2016-09-30T01:06:23.504Z,0
2016-09-30T01:07:23.797Z,0
2016-09-30T01:08:23.868Z,0
2016-09-30T01:09:23.904Z,0
2016-09-30T01:10:23.468Z,0
2016-09-30T01:11:23.208Z,0
2016-09-30T01:12:22.544Z,0
2016-09-30T01:13:23.183Z,0
2016-09-30T01:14:23.217Z,0
2016-09-30T01:15:23.147Z,0
2016-09-30T01:16:22.575Z,0
2016-09-30T01:17:23.736Z,0
2016-09-30T01:18:22.994Z,0
2016-09-30T01:19:22.294Z,0
2016-09-30T01:20:22.943Z,0
2016-09-30T01:21:22.892Z,0
2016-09-30T01:22:23.675Z,0
2016-09-30T01:23:21.697Z,0
2016-09-30T01:24:22.875Z,0
2016-09-30T01:25:22.972Z,0
2016-09-30T01:26:22.956Z,0
2016-09-30T01:27:22.392Z,0
2016-09-30T01:28:23.183Z,0
2016-09-30T01:29:22.591Z,0
2016-09-30T01:30:23.112Z,0
2016-09-30T01:31:21.819Z,0
2016-09-30T01:32:22.909Z,0
2016-09-30T01:33:23.174Z,0
2016-09-30T01:34:23.533Z,0
2016-09-30T01:35:22.161Z,0
2016-09-30T01:36:22.066Z,0
2016-09-30T01:37:22.812Z,0
2016-09-30T01:38:23.037Z,0
2016-09-30T01:39:22.125Z,0
2016-09-30T01:40:21.934Z,0
2016-09-30T01:41:21.454Z,0
2016-09-30T01:42:22.783Z,0
2016-09-30T01:43:22.558Z,0
2016-09-30T01:44:21.438Z,0
2016-09-30T01:45:22.760Z,0
2016-09-30T01:46:22.648Z,0
2016-09-30T01:47:22.334Z,0
2016-09-30T01:48:22.635Z,0
2016-09-30T01:49:21.776Z,0
2016-09-30T01:50:23.151Z,0
2016-09-30T01:51:21.195Z,0
2016-09-30T01:52:22.151Z,0
2016-09-30T01:53:23.074Z,0
2016-09-30T01:54:21.863Z,0
2016-09-30T01:55:22.118Z,0
2016-09-30T01:56:22.746Z,0
2016-09-30T01:57:21.163Z,0
2016-09-30T01:58:21.675Z,0
2016-09-30T01:59:22.469Z,0
2016-09-30T02:00:21.696Z,0
2016-09-30T02:01:22.363Z,0
2016-09-30T02:02:21.258Z,0
2016-09-30T02:03:21.976Z,0
2016-09-30T02:04:22.357Z,0
2016-09-30T02:05:22.747Z,0
2016-09-30T02:06:22.173Z,0
2016-09-30T02:07:22.475Z,0
2016-09-30T02:08:21.874Z,0
2016-09-30T02:09:22.702Z,0
2016-09-30T02:10:22.110Z,0
2016-09-30T02:11:22.110Z,0
2016-09-30T02:12:21.842Z,0
2016-09-30T02:13:21.831Z,0
2016-09-30T02:14:21.412Z,0
2016-09-30T02:15:22.215Z,0
2016-09-30T02:16:22.884Z,0
2016-09-30T02:17:22.406Z,0
2016-09-30T02:18:22.428Z,0
2016-09-30T02:19:21.344Z,0
2016-09-30T02:20:21.663Z,0
2016-09-30T02:21:21.715Z,0
2016-09-30T02:22:21.655Z,0
2016-09-30T02:23:22.173Z,0
2016-09-30T02:24:21.887Z,0
2016-09-30T02:25:21.467Z,0
2016-09-30T02:26:21.143Z,0
2016-09-30T02:27:21.400Z,0
2016-09-30T02:28:21.456Z,0
2016-09-30T02:29:21.162Z,0
2016-09-30T02:30:21.845Z,0
2016-09-30T02:31:22.577Z,0
2016-09-30T02:32:22.091Z,0
2016-09-30T02:33:21.854Z,0
2016-09-30T02:34:21.685Z,0
2016-09-30T02:35:21.985Z,0
2016-09-30T02:36:21.251Z,0
2016-09-30T02:37:22.126Z,0
2016-09-30T02:38:21.447Z,0
2016-09-30T02:39:21.830Z,0
2016-09-30T02:40:20.705Z,0
2016-09-30T02:41:21.675Z,0
2016-09-30T02:42:22.446Z,0
2016-09-30T02:43:20.814Z,0
2016-09-30T02:44:20.555Z,0
2016-09-30T02:45:21.428Z,0
2016-09-30T02:46:21.937Z,0
2016-09-30T02:47:21.072Z,0
2016-09-30T02:48:21.963Z,0
2016-09-30T02:49:21.887Z,0
2016-09-30T02:50:20.516Z,0
2016-09-30T02:51:21.733Z,0
2016-09-30T02:52:22.257Z,0
2016-09-30T02:53:21.236Z,0
2016-09-30T02:54:21.074Z,0
2016-09-30T02:55:21.223Z,0
2016-09-30T02:56:21.204Z,0
2016-09-30T02:57:21.825Z,0
2016-09-30T02:58:20.865Z,0
2016-09-30T02:59:20.237Z,0
2016-09-30T03:00:21.422Z,0
2016-09-30T03:01:20.955Z,0
2016-09-30T03:02:20.907Z,0
2016-09-30T03:03:21.552Z,0
2016-09-30T03:04:20.623Z,0
2016-09-30T03:05:22.142Z,0
2016-09-30T03:06:21.407Z,0
2016-09-30T03:07:21.031Z,0
2016-09-30T03:08:21.360Z,0
2016-09-30T03:09:20.096Z,0
2016-09-30T03:10:21.168Z,0
2016-09-30T03:11:20.853Z,0
2016-09-30T03:12:20.578Z,0
2016-09-30T03:13:20.681Z,0
2016-09-30T03:14:20.536Z,0
2016-09-30T03:15:21.255Z,0
2016-09-30T03:16:21.355Z,0
2016-09-30T03:17:21.322Z,0
2016-09-30T03:18:20.843Z,0
2016-09-30T03:19:21.035Z,0
2016-09-30T03:20:20.650Z,0
2016-09-30T03:21:21.074Z,0
2016-09-30T03:22:20.754Z,0
2016-09-30T03:23:20.690Z,0
2016-09-30T03:24:21.121Z,0
2016-09-30T03:25:20.083Z,0
2016-09-30T03:26:21.355Z,0
2016-09-30T03:27:21.396Z,0
2016-09-30T03:28:19.679Z,0
2016-09-30T03:29:21.404Z,0
2016-09-30T03:30:20.639Z,0
2016-09-30T03:31:21.323Z,0
2016-09-30T03:32:21.332Z,0
2016-09-30T03:33:18.869Z,0
2016-09-30T03:34:20.294Z,0
2016-09-30T03:35:20.548Z,0
2016-09-30T03:36:20.077Z,0
2016-09-30T03:37:21.185Z,0
2016-09-30T03:38:20.936Z,0
2016-09-30T03:39:21.422Z,0
2016-09-30T03:40:20.398Z,0
2016-09-30T03:41:21.521Z,0
2016-09-30T03:42:20.687Z,0
2016-09-30T03:43:20.308Z,0
2016-09-30T03:44:20.795Z,0
2016-09-30T03:45:21.293Z,0
2016-09-30T03:46:20.142Z,0
2016-09-30T03:47:21.435Z,0
2016-09-30T03:48:20.316Z,0
2016-09-30T03:49:20.765Z,0
2016-09-30T03:50:20.064Z,0
2016-09-30T03:51:20.689Z,0
2016-09-30T03:52:20.970Z,0
2016-09-30T03:53:20.210Z,0
2016-09-30T03:54:19.837Z,0
2016-09-30T03:55:20.896Z,0
2016-09-30T03:56:20.746Z,0
2016-09-30T03:57:21.110Z,0
2016-09-30T03:58:19.809Z,0
2016-09-30T03:59:20.517Z,0
2016-09-30T04:00:20.518Z,0
2016-09-30T04:01:20.215Z,0
2016-09-30T04:02:20.065Z,0
2016-09-30T04:03:19.694Z,0
2016-09-30T04:04:21.167Z,0
2016-09-30T04:05:19.844Z,0
2016-09-30T04:06:21.094Z,0
2016-09-30T04:07:20.726Z,0
2016-09-30T04:08:19.123Z,0
2016-09-30T04:09:20.014Z,0
2016-09-30T04:10:19.496Z,0
2016-09-30T04:11:19.732Z,0
2016-09-30T04:12:20.647Z,0
2016-09-30T04:13:20.314Z,0
2016-09-30T04:14:20.337Z,0
2016-09-30T04:15:19.583Z,0
2016-09-30T04:16:19.776Z,0
2016-09-30T04:17:20.996Z,0
2016-09-30T04:18:20.923Z,0
2016-09-30T04:19:20.292Z,0
2016-09-30T04:20:18.781Z,0
2016-09-30T04:21:19.524Z,0
2016-09-30T04:22:18.276Z,0
2016-09-30T04:23:19.786Z,0
2016-09-30T04:24:20.188Z,0
2016-09-30T04:25:19.356Z,0
2016-09-30T04:26:20.135Z,0
2016-09-30T04:27:19.975Z,0
2016-09-30T04:28:19.838Z,0
2016-09-30T04:29:19.217Z,0
2016-09-30T04:30:20.066Z,0
2016-09-30T04:31:19.913Z,0
2016-09-30T04:32:19.393Z,0
2016-09-30T04:33:20.714Z,0
2016-09-30T04:34:19.392Z,0
2016-09-30T04:35:19.198Z,0
2016-09-30T04:36:20.647Z,0
2016-09-30T04:37:18.907Z,0
2016-09-30T04:38:18.914Z,0
2016-09-30T04:39:20.797Z,0
2016-09-30T04:40:19.256Z,0
2016-09-30T04:41:20.217Z,0
2016-09-30T04:42:19.259Z,0
2016-09-30T04:43:19.531Z,0
2016-09-30T04:44:19.719Z,0
2016-09-30T04:45:20.525Z,0
2016-09-30T04:46:19.788Z,0
2016-09-30T04:47:18.907Z,0
2016-09-30T04:48:19.742Z,0
2016-09-30T04:49:20.032Z,0
2016-09-30T04:50:20.024Z,0
2016-09-30T04:51:19.730Z,0
2016-09-30T04:52:19.105Z,0
2016-09-30T04:53:20.393Z,0
2016-09-30T04:54:19.314Z,0
2016-09-30T04:55:19.918Z,0
2016-09-30T04:56:18.385Z,0
2016-09-30T04:57:18.593Z,0
2016-09-30T04:58:19.507Z,0
2016-09-30T04:59:19.506Z,0
2016-09-30T05:00:19.524Z,0
2016-09-30T05:01:19.194Z,0
2016-09-30T05:02:18.996Z,0
2016-09-30T05:03:18.763Z,0
2016-09-30T05:04:18.223Z,0
2016-09-30T05:05:19.927Z,0
2016-09-30T05:06:19.546Z,0
2016-09-30T05:07:20.174Z,0
2016-09-30T05:08:18.214Z,0
2016-09-30T05:09:20.131Z,0
2016-09-30T05:10:18.276Z,0
2016-09-30T05:11:20.083Z,0
2016-09-30T05:12:19.428Z,0
2016-09-30T05:13:18.520Z,0
2016-09-30T05:14:19.908Z,0
2016-09-30T05:15:19.595Z,0
2016-09-30T05:16:18.925Z,0
2016-09-30T05:17:19.496Z,0
2016-09-30T05:18:18.923Z,0
2016-09-30T05:19:18.763Z,0
2016-09-30T05:20:18.584Z,0
2016-09-30T05:21:19.902Z,0
2016-09-30T05:22:17.865Z,0
2016-09-30T05:23:19.502Z,0
2016-09-30T05:24:18.825Z,0
2016-09-30T05:25:17.927Z,0
2016-09-30T05:26:18.544Z,0
2016-09-30T05:27:18.712Z,0
2016-09-30T05:28:19.090Z,0
2016-09-30T05:29:18.513Z,0
2016-09-30T05:30:18.974Z,0
2016-09-30T05:31:18.457Z,0
2016-09-30T05:32:19.207Z,0
2016-09-30T05:33:18.929Z,0
2016-09-30T05:34:19.738Z,0
2016-09-30T05:35:18.978Z,0
2016-09-30T05:36:17.657Z,0
2016-09-30T05:37:19.695Z,0
2016-09-30T05:38:17.743Z,0
2016-09-30T05:39:18.973Z,0
2016-09-30T05:40:18.207Z,0
2016-09-30T05:41:19.485Z,0
2016-09-30T05:42:17.732Z,0
2016-09-30T05:43:18.958Z,0
2016-09-30T05:44:18.514Z,0
2016-09-30T05:45:18.508Z,0
2016-09-30T05:46:18.280Z,0
2016-09-30T05:47:18.866Z,0
2016-09-30T05:48:18.127Z,0
2016-09-30T05:49:18.445Z,0
2016-09-30T05:50:18.457Z,0
2016-09-30T05:51:17.845Z,0
2016-09-30T05:52:18.109Z,0
2016-09-30T05:53:18.393Z,0
2016-09-30T05:54:18.815Z,0
2016-09-30T05:55:19.225Z,0
2016-09-30T05:56:17.436Z,0
2016-09-30T05:57:20.041Z,0
2016-09-30T05:58:18.271Z,0
2016-09-30T05:59:19.177Z,0
2016-09-30T06:00:18.804Z,0
2016-09-30T06:01:18.545Z,0
2016-09-30T06:02:17.324Z,0
2016-09-30T06:03:17.802Z,5
2016-09-30T06:04:19.259Z,5
2016-09-30T06:05:18.773Z,5
2016-09-30T06:06:19.064Z,5
2016-09-30T06:07:17.476Z,5
2016-09-30T06:08:17.734Z,5
2016-09-30T06:09:17.627Z,5
2016-09-30T06:10:18.494Z,5
2016-09-30T06:11:17.233Z,5
2016-09-30T06:12:17.925Z,5
2016-09-30T06:13:17.711Z,5
2016-09-30T06:14:18.475Z,5
2016-09-30T06:15:17.783Z,5
2016-09-30T06:16:17.720Z,10
2016-09-30T06:17:17.913Z,10
2016-09-30T06:18:17.984Z,10
2016-09-30T06:19:17.390Z,10
2016-09-30T06:20:18.374Z,10
2016-09-30T06:21:17.926Z,10
2016-09-30T06:22:18.237Z,10
2016-09-30T06:23:17.875Z,10
2016-09-30T06:24:18.105Z,10
2016-09-30T06:25:17.215Z,5
2016-09-30T06:26:17.858Z,5
2016-09-30T06:27:18.928Z,10
2016-09-30T06:28:18.741Z,10
2016-09-30T06:29:18.147Z,10
2016-09-30T06:30:18.184Z,10
2016-09-30T06:31:17.890Z,10
2016-09-30T06:32:18.015Z,5
2016-09-30T06:33:18.455Z,10
2016-09-30T06:34:17.763Z,10
2016-09-30T06:35:18.146Z,10
2016-09-30T06:36:18.115Z,10
2016-09-30T06:37:17.688Z,15
2016-09-30T06:38:18.098Z,15
2016-09-30T06:39:16.691Z,15
2016-09-30T06:40:17.624Z,15
2016-09-30T06:41:18.018Z,15
2016-09-30T06:42:17.394Z,15
2016-09-30T06:43:17.863Z,15
2016-09-30T06:44:18.099Z,15
2016-09-30T06:45:17.551Z,20
2016-09-30T06:46:17.784Z,20
2016-09-30T06:47:17.116Z,20
2016-09-30T06:48:17.922Z,25
2016-09-30T06:49:16.520Z,25
2016-09-30T06:50:17.740Z,25
2016-09-30T06:51:17.059Z,25
2016-09-30T06:52:18.410Z,25
2016-09-30T06:53:18.066Z,30
2016-09-30T06:54:17.086Z,30
2016-09-30T06:55:17.794Z,30
2016-09-30T06:56:17.776Z,35
2016-09-30T06:57:17.067Z,35
2016-09-30T06:58:17.770Z,35
2016-09-30T06:59:17.094Z,35
2016-09-30T07:00:17.004Z,35
2016-09-30T07:01:16.231Z,30
2016-09-30T07:02:17.086Z,30
2016-09-30T07:03:17.752Z,35
2016-09-30T07:04:16.360Z,30
2016-09-30T07:05:16.636Z,35
2016-09-30T07:06:16.828Z,35
2016-09-30T07:07:15.676Z,35
2016-09-30T07:08:16.466Z,35
2016-09-30T07:09:17.676Z,35
2016-09-30T07:10:17.170Z,35
2016-09-30T07:11:17.133Z,35
2016-09-30T07:12:18.205Z,40
2016-09-30T07:13:17.346Z,40
2016-09-30T07:14:17.778Z,40
2016-09-30T07:15:17.102Z,40
2016-09-30T07:16:17.486Z,40
2016-09-30T07:17:16.087Z,40
2016-09-30T07:18:17.040Z,40
2016-09-30T07:19:16.856Z,40
2016-09-30T07:20:17.298Z,45
2016-09-30T07:21:16.467Z,45
2016-09-30T07:22:15.895Z,50
2016-09-30T07:23:16.393Z,50
2016-09-30T07:24:16.407Z,50
2016-09-30T07:25:15.952Z,50
2016-09-30T07:26:16.572Z,55
2016-09-30T07:27:15.864Z,65
2016-09-30T07:28:17.284Z,55
2016-09-30T07:29:17.287Z,55
2016-09-30T07:30:16.514Z,50
2016-09-30T07:31:15.955Z,55
2016-09-30T07:32:17.244Z,55
2016-09-30T07:33:16.469Z,60
2016-09-30T07:34:17.302Z,50
2016-09-30T07:35:16.646Z,50
2016-09-30T07:36:17.395Z,45
2016-09-30T07:37:15.704Z,45
2016-09-30T07:38:17.768Z,45
2016-09-30T07:39:17.155Z,50
2016-09-30T07:40:17.113Z,50
2016-09-30T07:41:16.592Z,55
2016-09-30T07:42:16.384Z,60
2016-09-30T07:43:17.094Z,55
2016-09-30T07:44:15.998Z,55
2016-09-30T07:45:17.100Z,55
2016-09-30T07:46:16.616Z,45
2016-09-30T07:47:17.519Z,50
2016-09-30T07:48:16.985Z,45
2016-09-30T07:49:16.333Z,55
2016-09-30T07:50:16.584Z,55
2016-09-30T07:51:17.218Z,50
2016-09-30T07:52:16.943Z,55
2016-09-30T07:53:17.548Z,70
2016-09-30T07:54:17.471Z,50
2016-09-30T07:55:16.844Z,45
2016-09-30T07:56:16.233Z,60
2016-09-30T07:57:16.843Z,80
2016-09-30T07:58:15.759Z,85
2016-09-30T07:59:15.512Z,75
2016-09-30T08:00:14.853Z,90
2016-09-30T08:01:15.494Z,85
2016-09-30T08:02:16.624Z,85
2016-09-30T08:03:16.311Z,80
2016-09-30T08:04:15.385Z,85
2016-09-30T08:05:16.117Z,85
2016-09-30T08:06:16.054Z,90
2016-09-30T08:07:16.045Z,95
2016-09-30T08:08:16.055Z,90
2016-09-30T08:09:15.117Z,85
2016-09-30T08:10:15.592Z,80
2016-09-30T08:11:16.484Z,100
2016-09-30T08:12:16.004Z,95
2016-09-30T08:13:15.746Z,105
2016-09-30T08:14:14.794Z,115
2016-09-30T08:15:15.542Z,130
2016-09-30T08:16:16.776Z,120
2016-09-30T08:17:15.119Z,105
2016-09-30T08:18:15.828Z,220
2016-09-30T08:19:15.726Z,270
2016-09-30T08:20:16.354Z,205
2016-09-30T08:21:15.987Z,180
2016-09-30T08:22:16.449Z,200
2016-09-30T08:23:15.681Z,180
2016-09-30T08:24:15.225Z,445
2016-09-30T08:25:16.298Z,380
2016-09-30T08:26:16.022Z,495
2016-09-30T08:27:15.781Z,450
2016-09-30T08:28:16.399Z,575
2016-09-30T08:29:15.747Z,555
2016-09-30T08:30:14.889Z,555
2016-09-30T08:31:16.883Z,240
2016-09-30T08:32:15.623Z,345
2016-09-30T08:33:15.927Z,405
2016-09-30T08:34:14.930Z,425
2016-09-30T08:35:15.643Z,370
2016-09-30T08:36:15.565Z,225
2016-09-30T08:37:15.685Z,605
2016-09-30T08:38:15.691Z,680
2016-09-30T08:39:16.275Z,895
2016-09-30T08:40:15.829Z,890
2016-09-30T08:41:16.947Z,780
2016-09-30T08:42:15.129Z,735
2016-09-30T08:43:16.418Z,720
2016-09-30T08:44:14.163Z,770
2016-09-30T08:45:15.123Z,510
2016-09-30T08:46:16.420Z,500
2016-09-30T08:47:15.317Z,600
2016-09-30T08:48:15.421Z,260
2016-09-30T08:49:15.070Z,745
2016-09-30T08:50:16.116Z,815
2016-09-30T08:51:15.812Z,355
2016-09-30T08:52:15.924Z,580
2016-09-30T08:53:14.792Z,315
2016-09-30T08:54:15.886Z,455
2016-09-30T08:55:16.314Z,1095
2016-09-30T08:56:16.033Z,330
2016-09-30T08:57:15.392Z,1200
2016-09-30T08:58:14.986Z,995
2016-09-30T08:59:15.633Z,435
2016-09-30T09:00:15.996Z,415
2016-09-30T09:01:16.652Z,320
2016-09-30T09:02:16.103Z,355
2016-09-30T09:03:16.494Z,285
2016-09-30T09:04:16.071Z,360
2016-09-30T09:05:15.636Z,375
2016-09-30T09:06:15.052Z,530
2016-09-30T09:07:15.213Z,465
2016-09-30T09:08:15.326Z,320
2016-09-30T09:09:15.266Z,410
2016-09-30T09:10:14.481Z,725
2016-09-30T09:11:15.923Z,610
2016-09-30T09:12:14.686Z,580
2016-09-30T09:13:15.386Z,245
2016-09-30T09:14:14.524Z,395
2016-09-30T09:15:14.481Z,490
2016-09-30T09:16:15.292Z,350
2016-09-30T09:17:14.404Z,290
2016-09-30T09:18:14.048Z,465
2016-09-30T09:19:15.393Z,760
2016-09-30T09:20:14.112Z,345
2016-09-30T09:21:15.313Z,370
2016-09-30T09:22:15.720Z,245
2016-09-30T09:23:15.798Z,210
2016-09-30T09:24:15.137Z,315
2016-09-30T09:25:14.962Z,350
2016-09-30T09:26:15.574Z,800
2016-09-30T09:27:14.917Z,1220
2016-09-30T09:28:15.743Z,940
2016-09-30T09:29:14.852Z,1125
2016-09-30T09:30:15.003Z,995
2016-09-30T09:31:15.577Z,495
2016-09-30T09:32:13.926Z,495
2016-09-30T09:33:14.925Z,485
2016-09-30T09:34:15.102Z,325
2016-09-30T09:35:15.286Z,315
2016-09-30T09:36:15.644Z,265
2016-09-30T09:37:15.151Z,245
2016-09-30T09:38:14.906Z,355
2016-09-30T09:39:14.794Z,275
2016-09-30T09:40:15.430Z,205
2016-09-30T09:41:16.267Z,175
2016-09-30T09:42:14.943Z,165
2016-09-30T09:43:15.018Z,165
2016-09-30T09:44:15.823Z,285
2016-09-30T09:45:16.073Z,310
2016-09-30T09:46:14.087Z,275
2016-09-30T09:47:14.873Z,210
2016-09-30T09:48:15.767Z,185
2016-09-30T09:49:15.276Z,165
2016-09-30T09:50:15.764Z,175
2016-09-30T09:51:13.790Z,170
2016-09-30T09:52:14.594Z,155
2016-09-30T09:53:14.794Z,140
2016-09-30T09:54:15.482Z,135
2016-09-30T09:55:15.204Z,125
2016-09-30T09:56:14.213Z,120
2016-09-30T09:57:13.720Z,115
2016-09-30T09:58:15.396Z,115
2016-09-30T09:59:14.655Z,115
2016-09-30T10:00:15.908Z,105
2016-09-30T10:01:13.418Z,140
2016-09-30T10:02:14.627Z,115
2016-09-30T10:03:15.875Z,120
2016-09-30T10:04:15.000Z,125
2016-09-30T10:05:14.146Z,130
2016-09-30T10:06:15.134Z,145
2016-09-30T10:07:14.828Z,165
2016-09-30T10:08:13.342Z,180
2016-09-30T10:09:14.804Z,165
2016-09-30T10:10:14.137Z,160
2016-09-30T10:11:15.229Z,160
2016-09-30T10:12:15.144Z,205
2016-09-30T10:13:15.874Z,205
2016-09-30T10:14:14.425Z,180
2016-09-30T10:15:14.869Z,165
2016-09-30T10:16:13.792Z,155
2016-09-30T10:17:15.082Z,150
2016-09-30T10:18:13.206Z,155
2016-09-30T10:19:15.395Z,155
2016-09-30T10:20:13.665Z,160
2016-09-30T10:21:14.964Z,175
2016-09-30T10:22:15.207Z,180
2016-09-30T10:23:14.026Z,235
2016-09-30T10:24:15.316Z,315
2016-09-30T10:25:14.414Z,230
2016-09-30T10:26:15.136Z,190
2016-09-30T10:27:15.036Z,175
2016-09-30T10:28:13.987Z,160
2016-09-30T10:29:15.686Z,135
2016-09-30T10:30:13.949Z,125
2016-09-30T10:31:14.777Z,120
2016-09-30T10:32:13.605Z,125
2016-09-30T10:33:14.805Z,130
2016-09-30T10:34:14.299Z,125
2016-09-30T10:35:14.909Z,135
2016-09-30T10:36:14.275Z,125
2016-09-30T10:37:14.748Z,125
2016-09-30T10:38:14.453Z,135
2016-09-30T10:39:14.236Z,145
2016-09-30T10:40:14.848Z,145
2016-09-30T10:41:14.915Z,150
2016-09-30T10:42:14.196Z,180
2016-09-30T10:43:14.038Z,195
2016-09-30T10:44:14.205Z,215
2016-09-30T10:45:13.718Z,210
2016-09-30T10:46:14.137Z,195
2016-09-30T10:47:14.045Z,165
2016-09-30T10:48:15.452Z,145
2016-09-30T10:49:13.497Z,140
2016-09-30T10:50:15.006Z,130
2016-09-30T10:51:13.923Z,120
2016-09-30T10:52:14.326Z,110
2016-09-30T10:53:14.297Z,110
2016-09-30T10:54:14.367Z,105
2016-09-30T10:55:14.612Z,115
2016-09-30T10:56:14.012Z,120
2016-09-30T10:57:14.575Z,105
2016-09-30T10:58:14.704Z,90
2016-09-30T10:59:14.876Z,85
2016-09-30T11:00:13.855Z,100
2016-09-30T11:01:13.949Z,110
2016-09-30T11:02:13.939Z,110
2016-09-30T11:03:13.926Z,125
2016-09-30T11:04:14.588Z,155
2016-09-30T11:05:13.308Z,155
2016-09-30T11:06:14.527Z,185
2016-09-30T11:07:13.976Z,185
2016-09-30T11:08:14.047Z,180
2016-09-30T11:09:14.144Z,215
2016-09-30T11:10:14.194Z,215
2016-09-30T11:11:13.364Z,175
2016-09-30T11:12:13.248Z,170
2016-09-30T11:13:13.775Z,185
2016-09-30T11:14:13.485Z,200
2016-09-30T11:15:13.705Z,180
2016-09-30T11:16:14.530Z,165
2016-09-30T11:17:14.633Z,155
2016-09-30T11:18:14.345Z,165
2016-09-30T11:19:13.739Z,155
2016-09-30T11:20:13.316Z,135
2016-09-30T11:21:14.135Z,110
2016-09-30T11:22:14.386Z,105
2016-09-30T11:23:14.014Z,115
2016-09-30T11:24:13.669Z,120
2016-09-30T11:25:13.743Z,125
2016-09-30T11:26:14.506Z,135
2016-09-30T11:27:14.453Z,145
2016-09-30T11:28:14.295Z,150
2016-09-30T11:29:13.597Z,155
2016-09-30T11:30:13.845Z,150
2016-09-30T11:31:12.691Z,150
2016-09-30T11:32:13.415Z,135
2016-09-30T11:33:14.194Z,150
2016-09-30T11:34:13.831Z,195
2016-09-30T11:35:13.770Z,205
2016-09-30T11:36:14.187Z,215
2016-09-30T11:37:14.680Z,200
2016-09-30T11:38:13.705Z,185
2016-09-30T11:39:12.855Z,200
2016-09-30T11:40:14.894Z,165
2016-09-30T11:41:14.165Z,160
2016-09-30T11:42:13.028Z,150
2016-09-30T11:43:14.758Z,150
2016-09-30T11:44:14.354Z,150
2016-09-30T11:45:13.757Z,165
2016-09-30T11:46:14.015Z,170
2016-09-30T11:47:13.478Z,165
2016-09-30T11:48:13.378Z,160
2016-09-30T11:49:13.336Z,160
2016-09-30T11:50:13.177Z,150
2016-09-30T11:51:12.139Z,150
2016-09-30T11:52:12.507Z,160
2016-09-30T11:53:12.477Z,160
2016-09-30T11:54:13.285Z,160
2016-09-30T11:55:14.547Z,155
2016-09-30T11:56:13.939Z,155
2016-09-30T11:57:13.109Z,140
2016-09-30T11:58:13.910Z,120
2016-09-30T11:59:13.268Z,115
2016-09-30T12:00:13.106Z,120
2016-09-30T12:01:13.147Z,140
2016-09-30T12:02:13.076Z,170
2016-09-30T12:03:13.844Z,190
2016-09-30T12:04:13.823Z,170
2016-09-30T12:05:13.004Z,160
2016-09-30T12:06:13.687Z,155
2016-09-30T12:07:13.168Z,160
2016-09-30T12:08:13.640Z,165
2016-09-30T12:09:14.230Z,175
2016-09-30T12:10:12.454Z,190
2016-09-30T12:11:11.685Z,200
2016-09-30T12:12:14.246Z,205
2016-09-30T12:13:12.896Z,210
2016-09-30T12:14:13.302Z,205
2016-09-30T12:15:13.376Z,195
2016-09-30T12:16:12.277Z,195
2016-09-30T12:17:14.303Z,180
2016-09-30T12:18:12.919Z,175
2016-09-30T12:19:13.785Z,175
2016-09-30T12:20:12.868Z,170
2016-09-30T12:21:13.549Z,170
2016-09-30T12:22:13.238Z,170
2016-09-30T12:23:12.307Z,190
2016-09-30T12:24:12.836Z,205
2016-09-30T12:25:12.485Z,230
2016-09-30T12:26:13.665Z,240
2016-09-30T12:27:14.203Z,250
2016-09-30T12:28:13.371Z,265
2016-09-30T12:29:13.416Z,280
2016-09-30T12:30:12.027Z,275
2016-09-30T12:31:12.744Z,300
2016-09-30T12:32:13.471Z,310
2016-09-30T12:33:12.150Z,335
2016-09-30T12:34:12.314Z,360
2016-09-30T12:35:13.737Z,345
2016-09-30T12:36:12.038Z,355
2016-09-30T12:37:12.707Z,350
2016-09-30T12:38:12.034Z,345
2016-09-30T12:39:12.677Z,340
2016-09-30T12:40:12.500Z,345
2016-09-30T12:41:12.102Z,340
2016-09-30T12:42:12.066Z,330
2016-09-30T12:43:13.317Z,320
2016-09-30T12:44:13.332Z,305
2016-09-30T12:45:13.631Z,215
2016-09-30T12:46:12.702Z,210
2016-09-30T12:47:11.927Z,210
2016-09-30T12:48:12.629Z,175
2016-09-30T12:49:13.276Z,165
2016-09-30T12:50:13.899Z,165
2016-09-30T12:51:11.808Z,160
2016-09-30T12:52:13.256Z,160
2016-09-30T12:53:12.539Z,150
2016-09-30T12:54:12.808Z,135
2016-09-30T12:55:12.146Z,150
2016-09-30T12:56:13.224Z,140
2016-09-30T12:57:12.378Z,140
2016-09-30T12:58:12.713Z,140
2016-09-30T12:59:11.449Z,145
2016-09-30T13:00:11.466Z,140
2016-09-30T13:01:12.086Z,140
2016-09-30T13:02:11.804Z,150
2016-09-30T13:03:12.596Z,160
2016-09-30T13:04:11.993Z,150
2016-09-30T13:05:11.866Z,225
2016-09-30T13:06:12.589Z,275
2016-09-30T13:07:11.934Z,145
2016-09-30T13:08:13.609Z,145
2016-09-30T13:09:12.502Z,275
2016-09-30T13:10:11.661Z,255
2016-09-30T13:11:12.258Z,250
2016-09-30T13:12:12.606Z,235
2016-09-30T13:13:13.276Z,245
2016-09-30T13:14:12.080Z,245
2016-09-30T13:15:13.763Z,130
2016-09-30T13:16:12.225Z,235
2016-09-30T13:17:13.193Z,230
2016-09-30T13:18:12.565Z,115
2016-09-30T13:19:12.909Z,135
2016-09-30T13:20:13.057Z,210
2016-09-30T13:21:12.164Z,220
2016-09-30T13:22:11.138Z,245
2016-09-30T13:23:11.515Z,250
2016-09-30T13:24:11.817Z,250
2016-09-30T13:25:12.819Z,270
2016-09-30T13:26:11.575Z,265
2016-09-30T13:27:13.352Z,270
2016-09-30T13:28:12.782Z,265
2016-09-30T13:29:11.784Z,240
2016-09-30T13:30:11.360Z,260
2016-09-30T13:31:12.826Z,220
2016-09-30T13:32:11.755Z,180
2016-09-30T13:33:13.467Z,250
2016-09-30T13:34:12.542Z,255
2016-09-30T13:35:12.345Z,255
2016-09-30T13:36:12.749Z,250
2016-09-30T13:37:11.240Z,245
2016-09-30T13:38:12.325Z,170
2016-09-30T13:39:11.822Z,225
2016-09-30T13:40:13.488Z,110
2016-09-30T13:41:11.905Z,220
2016-09-30T13:42:11.797Z,170
2016-09-30T13:43:10.739Z,225
2016-09-30T13:44:12.704Z,240
2016-09-30T13:45:12.024Z,230
2016-09-30T13:46:12.139Z,225
2016-09-30T13:47:12.663Z,180
2016-09-30T13:48:12.511Z,190
2016-09-30T13:49:11.575Z,225
2016-09-30T13:50:12.511Z,225
2016-09-30T13:51:12.611Z,225
2016-09-30T13:52:11.349Z,220
2016-09-30T13:53:13.086Z,215
2016-09-30T13:54:11.159Z,225
2016-09-30T13:55:12.576Z,230
2016-09-30T13:56:11.348Z,230
2016-09-30T13:57:11.936Z,230
2016-09-30T13:58:12.452Z,225
2016-09-30T13:59:12.761Z,240
2016-09-30T14:00:13.249Z,225
2016-09-30T14:01:12.342Z,225
2016-09-30T14:02:12.323Z,225
2016-09-30T14:03:11.854Z,225
2016-09-30T14:04:11.151Z,225
2016-09-30T14:05:11.855Z,225
2016-09-30T14:06:12.356Z,215
2016-09-30T14:07:11.966Z,215
2016-09-30T14:08:11.811Z,215
2016-09-30T14:09:12.310Z,220
2016-09-30T14:10:11.338Z,220
2016-09-30T14:11:12.395Z,215
2016-09-30T14:12:12.354Z,215
2016-09-30T14:13:12.386Z,220
2016-09-30T14:14:11.955Z,215
2016-09-30T14:15:11.714Z,220
2016-09-30T14:16:10.326Z,215